»·PEaware :: N572PC KTEX-KRIF

N572PC :: KTEX-KRIF

FLIGHT INFORMATION

Flight Status: Arrived
Operator: Privately registered:
United States
More flights under this callsign
Pilot: James C. (16182)
Aircraft: PILATUS PC-12 EAGLE
(PC12)
More flights by this aircraft type
Origin: KTEX Telluride Regl
United States
Destination: KRIF Richfield Mun
United States
More flights between these airports :: More routes between these airports
Route: DVC SARAF
File this flight plan on PilotEdge
Remarks: PBN / D2 DOF / 180424 REG / N572PC EET / KZLC0031 PER / B RMK / TCAS SIMBRIEF
Altitude:
(Current/Filed)
24,000ft
Speed:
(Current/Filed)
277kts
Departed: 24-Apr-18 09:13 AM
Arrived: 24-Apr-18 10:20 AM
Distance/Time
Traveled:
203nm/1:07
Distance/Time
To Go:
Arrived

Flight Plot

Page will automatically refresh every two minutes.

Flight plan parsing failed; only flown route is shown


Map Options




Map Legend


Flown Route
Filed Route
Departure Airport
Arrival Airport
Navaid (VOR, NDB)
Fix

Horizontal Profiles

Position Reports

Time Latitude Longitude Heading Altitude Ground
Speed
24-Apr-18 08:52 37.953623 -107.900591 239 9059ft 0kts
24-Apr-18 08:53 37.953623 -107.900591 239 9059ft 0kts
24-Apr-18 08:54 37.953623 -107.900591 239 9059ft 0kts
24-Apr-18 08:55 37.953623 -107.900591 239 9059ft 0kts
24-Apr-18 08:56 37.953623 -107.900591 239 9059ft 0kts
24-Apr-18 08:57 37.953623 -107.900591 239 9059ft 0kts
24-Apr-18 08:58 37.953623 -107.900591 239 9059ft 0kts
24-Apr-18 08:59 37.953623 -107.900591 239 9059ft 0kts
24-Apr-18 09:00 37.953623 -107.900591 239 9059ft 0kts
24-Apr-18 09:01 37.953623 -107.900591 239 9059ft 0kts
24-Apr-18 09:02 37.953623 -107.900591 239 9059ft 0kts
24-Apr-18 09:03 37.953623 -107.900591 239 9059ft 0kts
24-Apr-18 09:04 37.953623 -107.900591 239 9059ft 0kts
24-Apr-18 09:05 37.953623 -107.900592 239 9059ft 0kts
24-Apr-18 09:06 37.953623 -107.900592 239 9059ft 0kts
24-Apr-18 09:07 37.953623 -107.900592 239 9059ft 0kts
24-Apr-18 09:08 37.953623 -107.900592 239 9059ft 0kts
24-Apr-18 09:09 37.952317 -107.896710 156 9059ft 0kts
24-Apr-18 09:10 37.952317 -107.896709 156 9059ft 0kts
24-Apr-18 09:11 37.951741 -107.896799 213 9059ft 9kts
24-Apr-18 09:12 37.956102 -107.919813 283 9637ft 119kts
24-Apr-18 09:13 37.965546 -107.963775 284 11805ft 127kts
24-Apr-18 09:14 37.972762 -108.005706 257 14063ft 123kts
24-Apr-18 09:15 37.964648 -108.047175 259 16188ft 122kts
24-Apr-18 09:16 37.957699 -108.086131 258 17505ft 154kts
24-Apr-18 09:17 37.947699 -108.144108 259 19232ft 144kts
24-Apr-18 09:18 37.939792 -108.188581 260 21279ft 132kts
24-Apr-18 09:19 37.932535 -108.229851 260 22870ft 133kts
24-Apr-18 09:20 37.924198 -108.277614 260 24004ft 164kts
24-Apr-18 09:21 37.912923 -108.343333 260 24002ft 209kts
24-Apr-18 09:22 37.899830 -108.418119 260 23908ft 224kts
24-Apr-18 09:23 37.886109 -108.495471 259 23906ft 227kts
24-Apr-18 09:24 37.872157 -108.573741 259 23905ft 229kts
24-Apr-18 09:25 37.858501 -108.650067 259 23904ft 229kts
24-Apr-18 09:26 37.845802 -108.720903 259 23913ft 228kts
24-Apr-18 09:27 37.832133 -108.796828 259 24096ft 220kts
24-Apr-18 09:28 37.819254 -108.867725 259 24281ft 223kts
24-Apr-18 09:29 37.813870 -108.945130 288 24281ft 227kts
24-Apr-18 09:30 37.843047 -109.016863 293 24282ft 230kts
24-Apr-18 09:31 37.873446 -109.087754 297 24281ft 232kts
24-Apr-18 09:32 37.902781 -109.159725 292 24281ft 230kts
24-Apr-18 09:33 37.931918 -109.231895 293 24280ft 230kts
24-Apr-18 09:34 37.961541 -109.303704 293 24280ft 230kts
24-Apr-18 09:35 37.991205 -109.375639 293 24279ft 230kts
24-Apr-18 09:36 38.020911 -109.447878 293 24278ft 231kts
24-Apr-18 09:37 38.050453 -109.519875 293 24277ft 231kts
24-Apr-18 09:38 38.080083 -109.592251 293 24277ft 231kts
24-Apr-18 09:39 38.106940 -109.657999 293 24283ft 231kts
24-Apr-18 09:40 38.133207 -109.722438 293 24286ft 232kts
24-Apr-18 09:41 38.160488 -109.789510 293 24229ft 235kts
24-Apr-18 09:42 38.190005 -109.862196 293 24211ft 234kts
24-Apr-18 09:43 38.218862 -109.933454 293 24210ft 233kts
24-Apr-18 09:44 38.248371 -110.006504 293 24246ft 232kts
24-Apr-18 09:45 38.277738 -110.079330 293 24243ft 229kts
24-Apr-18 09:46 38.309192 -110.150103 300 24245ft 231kts
24-Apr-18 09:47 38.346399 -110.216737 300 24244ft 231kts
24-Apr-18 09:48 38.383558 -110.283406 300 24244ft 231kts
24-Apr-18 09:49 38.420665 -110.350429 300 24243ft 231kts
24-Apr-18 09:50 38.458971 -110.416391 301 24242ft 232kts
24-Apr-18 09:51 38.495895 -110.479574 301 24243ft 223kts
24-Apr-18 09:52 38.533998 -110.543831 302 24241ft 230kts
24-Apr-18 09:53 38.572880 -110.608813 302 24240ft 231kts
24-Apr-18 09:54 38.597908 -110.650719 301 24240ft 232kts
24-Apr-18 09:55 38.635098 -110.713088 302 24058ft 231kts
24-Apr-18 09:56 38.672330 -110.773764 302 21811ft 214kts
24-Apr-18 09:57 38.709116 -110.837142 301 19867ft 243kts
24-Apr-18 09:58 38.750572 -110.907061 302 18471ft 240kts
24-Apr-18 09:59 38.782787 -110.961226 301 17671ft 226kts
24-Apr-18 10:00 38.827448 -111.037672 302 17203ft 232kts
24-Apr-18 10:01 38.866289 -111.103549 302 16797ft 231kts
24-Apr-18 10:02 38.905163 -111.169700 302 16383ft 232kts
24-Apr-18 10:03 38.933058 -111.242067 284 16042ft 229kts
24-Apr-18 10:04 38.950388 -111.322681 284 15531ft 243kts
24-Apr-18 10:05 38.968408 -111.407835 284 14917ft 250kts
24-Apr-18 10:06 38.986664 -111.494328 284 14306ft 254kts
24-Apr-18 10:07 39.005122 -111.582128 284 13693ft 257kts
24-Apr-18 10:08 39.019292 -111.649779 284 13222ft 258kts
24-Apr-18 10:09 39.032323 -111.712163 283 12843ft 257kts
24-Apr-18 10:10 39.025025 -111.793971 233 12126ft 241kts
24-Apr-18 10:11 38.979183 -111.845025 222 10432ft 206kts
24-Apr-18 10:12 38.934678 -111.893094 221 8319ft 202kts
24-Apr-18 10:13 38.899764 -111.930266 220 8305ft 151kts
24-Apr-18 10:14 38.867029 -111.965753 220 8281ft 154kts
24-Apr-18 10:15 38.832378 -112.003063 221 7363ft 178kts
24-Apr-18 10:16 38.799316 -112.039334 221 6892ft 132kts
24-Apr-18 10:17 38.776417 -112.065856 223 6387ft 98kts
24-Apr-18 10:18 38.754134 -112.088496 206 5578ft 101kts
24-Apr-18 10:19 38.736413 -112.098950 199 5282ft 25kts
24-Apr-18 10:20 38.729161 -112.103295 203 5302ft 25kts
24-Apr-18 10:21 38.729880 -112.101840 35 5298ft 0kts
24-Apr-18 10:22 38.729926 -112.101769 57 5297ft 0kts
24-Apr-18 10:23 38.729926 -112.101770 57 5297ft 0kts
24-Apr-18 10:24 38.729926 -112.101770 57 5297ft 0kts
24-Apr-18 10:25 38.729926 -112.101770 57 5297ft 0kts
24-Apr-18 10:26 38.729926 -112.101770 57 5297ft 0kts
24-Apr-18 10:27 38.729926 -112.101770 57 5297ft 0kts
24-Apr-18 10:28 38.729926 -112.101770 57 5297ft 0kts
24-Apr-18 10:29 38.729926 -112.101770 57 5297ft 0kts
24-Apr-18 10:30 38.729926 -112.101770 57 5297ft 0kts
24-Apr-18 10:31 38.729926 -112.101770 57 5297ft 0kts
24-Apr-18 10:32 38.729926 -112.101770 57 5297ft 0kts
24-Apr-18 10:33 38.729926 -112.101770 57 5297ft 0kts

Navigation Log

Ident Type
Flight plan parsing failed, navigation log unavailable